sensor_id;sensor_type;location;lat;lon;timestamp;P1;durP1;ratioP1;P2;durP2;ratioP2
13793;SDS011;31160;49.500;7.772;2023-12-20T00:01:23;2.90;;;2.30;;
13793;SDS011;31160;49.500;7.772;2023-12-20T00:03:51;2.30;;;1.90;;
13793;SDS011;31160;49.500;7.772;2023-12-20T00:06:19;3.83;;;2.17;;
13793;SDS011;31160;49.500;7.772;2023-12-20T00:08:48;2.30;;;1.73;;
13793;SDS011;31160;49.500;7.772;2023-12-20T00:11:16;2.40;;;1.90;;
13793;SDS011;31160;49.500;7.772;2023-12-20T00:13:43;2.73;;;2.10;;
13793;SDS011;31160;49.500;7.772;2023-12-20T00:16:15;2.77;;;2.00;;
13793;SDS011;31160;49.500;7.772;2023-12-20T00:18:43;3.07;;;2.20;;
13793;SDS011;31160;49.500;7.772;2023-12-20T00:21:11;2.27;;;1.97;;
13793;SDS011;31160;49.500;7.772;2023-12-20T00:23:38;3.10;;;2.27;;
13793;SDS011;31160;49.500;7.772;2023-12-20T00:26:06;4.00;;;1.97;;
13793;SDS011;31160;49.500;7.772;2023-12-20T00:28:33;2.97;;;2.03;;
13793;SDS011;31160;49.500;7.772;2023-12-20T00:31:01;2.60;;;1.87;;
13793;SDS011;31160;49.500;7.772;2023-12-20T00:33:28;2.73;;;2.40;;
13793;SDS011;31160;49.500;7.772;2023-12-20T00:35:57;2.67;;;2.00;;
13793;SDS011;31160;49.500;7.772;2023-12-20T00:38:24;2.67;;;1.80;;
13793;SDS011;31160;49.500;7.772;2023-12-20T00:40:52;3.23;;;2.10;;
13793;SDS011;31160;49.500;7.772;2023-12-20T00:43:19;2.70;;;1.90;;
13793;SDS011;31160;49.500;7.772;2023-12-20T00:45:46;1.90;;;1.70;;
13793;SDS011;31160;49.500;7.772;2023-12-20T00:48:14;2.17;;;1.60;;
13793;SDS011;31160;49.500;7.772;2023-12-20T00:50:41;3.03;;;2.23;;
13793;SDS011;31160;49.500;7.772;2023-12-20T00:53:08;2.57;;;1.93;;
13793;SDS011;31160;49.500;7.772;2023-12-20T00:55:36;1.80;;;1.67;;
13793;SDS011;31160;49.500;7.772;2023-12-20T00:58:04;2.23;;;1.60;;
13793;SDS011;31160;49.500;7.772;2023-12-20T01:00:32;2.20;;;1.97;;
13793;SDS011;31160;49.500;7.772;2023-12-20T01:03:00;4.17;;;2.03;;
13793;SDS011;31160;49.500;7.772;2023-12-20T01:05:27;2.63;;;2.03;;
13793;SDS011;31160;49.500;7.772;2023-12-20T01:07:55;2.27;;;2.00;;
13793;SDS011;31160;49.500;7.772;2023-12-20T01:10:22;2.53;;;1.73;;
13793;SDS011;31160;49.500;7.772;2023-12-20T01:12:50;2.63;;;2.03;;
13793;SDS011;31160;49.500;7.772;2023-12-20T01:15:18;2.13;;;1.83;;
13793;SDS011;31160;49.500;7.772;2023-12-20T01:17:46;2.73;;;1.93;;
13793;SDS011;31160;49.500;7.772;2023-12-20T01:20:14;4.70;;;1.73;;
13793;SDS011;31160;49.500;7.772;2023-12-20T01:22:41;2.53;;;1.70;;
13793;SDS011;31160;49.500;7.772;2023-12-20T01:25:13;2.33;;;1.90;;
13793;SDS011;31160;49.500;7.772;2023-12-20T01:27:41;2.17;;;1.50;;
13793;SDS011;31160;49.500;7.772;2023-12-20T01:30:09;2.23;;;1.83;;
13793;SDS011;31160;49.500;7.772;2023-12-20T01:32:36;2.30;;;1.60;;
13793;SDS011;31160;49.500;7.772;2023-12-20T01:35:04;2.40;;;2.00;;
13793;SDS011;31160;49.500;7.772;2023-12-20T01:37:32;1.97;;;1.60;;
13793;SDS011;31160;49.500;7.772;2023-12-20T01:40:00;2.20;;;1.60;;
13793;SDS011;31160;49.500;7.772;2023-12-20T01:42:29;2.10;;;1.90;;
13793;SDS011;31160;49.500;7.772;2023-12-20T01:44:57;3.57;;;2.00;;
13793;SDS011;31160;49.500;7.772;2023-12-20T01:47:24;2.17;;;1.80;;
13793;SDS011;31160;49.500;7.772;2023-12-20T01:49:54;1.90;;;1.60;;
13793;SDS011;31160;49.500;7.772;2023-12-20T01:52:24;2.93;;;1.87;;
13793;SDS011;31160;49.500;7.772;2023-12-20T01:54:53;1.57;;;1.47;;
13793;SDS011;31160;49.500;7.772;2023-12-20T01:57:27;2.03;;;1.43;;
13793;SDS011;31160;49.500;7.772;2023-12-20T01:59:55;1.67;;;1.50;;
13793;SDS011;31160;49.500;7.772;2023-12-20T02:02:23;4.93;;;1.60;;
13793;SDS011;31160;49.500;7.772;2023-12-20T02:04:52;2.53;;;1.80;;
13793;SDS011;31160;49.500;7.772;2023-12-20T02:07:19;1.80;;;1.57;;
13793;SDS011;31160;49.500;7.772;2023-12-20T02:09:48;1.57;;;1.47;;
13793;SDS011;31160;49.500;7.772;2023-12-20T02:12:15;3.87;;;2.13;;
13793;SDS011;31160;49.500;7.772;2023-12-20T02:14:42;2.10;;;1.83;;
13793;SDS011;31160;49.500;7.772;2023-12-20T02:17:08;1.97;;;1.63;;
13793;SDS011;31160;49.500;7.772;2023-12-20T02:19:35;2.27;;;1.70;;
13793;SDS011;31160;49.500;7.772;2023-12-20T02:22:06;2.40;;;1.83;;
13793;SDS011;31160;49.500;7.772;2023-12-20T02:24:37;2.87;;;1.77;;
13793;SDS011;31160;49.500;7.772;2023-12-20T02:27:05;4.23;;;2.10;;
13793;SDS011;31160;49.500;7.772;2023-12-20T02:29:33;2.90;;;1.70;;
13793;SDS011;31160;49.500;7.772;2023-12-20T02:32:01;1.90;;;1.67;;
13793;SDS011;31160;49.500;7.772;2023-12-20T02:34:29;2.80;;;1.50;;
13793;SDS011;31160;49.500;7.772;2023-12-20T02:36:56;2.60;;;2.10;;
13793;SDS011;31160;49.500;7.772;2023-12-20T02:39:23;2.23;;;1.70;;
13793;SDS011;31160;49.500;7.772;2023-12-20T02:41:49;1.90;;;1.73;;
13793;SDS011;31160;49.500;7.772;2023-12-20T02:44:16;3.03;;;1.70;;
13793;SDS011;31160;49.500;7.772;2023-12-20T02:46:43;2.10;;;1.43;;
13793;SDS011;31160;49.500;7.772;2023-12-20T02:49:10;2.07;;;1.77;;
13793;SDS011;31160;49.500;7.772;2023-12-20T02:51:36;5.40;;;2.27;;
13793;SDS011;31160;49.500;7.772;2023-12-20T02:54:06;1.90;;;1.70;;
13793;SDS011;31160;49.500;7.772;2023-12-20T02:56:33;3.13;;;1.50;;
13793;SDS011;31160;49.500;7.772;2023-12-20T02:59:00;2.13;;;1.50;;
13793;SDS011;31160;49.500;7.772;2023-12-20T03:01:27;2.10;;;1.60;;
13793;SDS011;31160;49.500;7.772;2023-12-20T03:03:55;2.23;;;1.90;;
13793;SDS011;31160;49.500;7.772;2023-12-20T03:06:21;2.23;;;1.97;;
13793;SDS011;31160;49.500;7.772;2023-12-20T03:08:48;1.47;;;1.37;;
13793;SDS011;31160;49.500;7.772;2023-12-20T03:11:15;2.20;;;1.77;;
13793;SDS011;31160;49.500;7.772;2023-12-20T03:13:42;2.10;;;1.63;;
13793;SDS011;31160;49.500;7.772;2023-12-20T03:16:09;1.87;;;1.60;;
13793;SDS011;31160;49.500;7.772;2023-12-20T03:18:36;2.63;;;2.00;;
13793;SDS011;31160;49.500;7.772;2023-12-20T03:21:04;2.17;;;1.87;;
13793;SDS011;31160;49.500;7.772;2023-12-20T03:23:31;2.40;;;2.00;;
13793;SDS011;31160;49.500;7.772;2023-12-20T03:26:01;3.50;;;2.30;;
13793;SDS011;31160;49.500;7.772;2023-12-20T03:28:28;4.67;;;2.57;;
13793;SDS011;31160;49.500;7.772;2023-12-20T03:30:55;2.87;;;2.30;;
13793;SDS011;31160;49.500;7.772;2023-12-20T03:33:22;2.60;;;2.30;;
13793;SDS011;31160;49.500;7.772;2023-12-20T03:35:49;4.13;;;2.47;;
13793;SDS011;31160;49.500;7.772;2023-12-20T03:38:16;3.70;;;2.90;;
13793;SDS011;31160;49.500;7.772;2023-12-20T03:40:42;3.27;;;2.60;;
13793;SDS011;31160;49.500;7.772;2023-12-20T03:43:09;2.90;;;2.30;;
13793;SDS011;31160;49.500;7.772;2023-12-20T03:45:36;2.93;;;2.50;;
13793;SDS011;31160;49.500;7.772;2023-12-20T03:48:03;3.47;;;3.10;;
13793;SDS011;31160;49.500;7.772;2023-12-20T03:50:30;3.07;;;2.77;;
13793;SDS011;31160;49.500;7.772;2023-12-20T03:52:57;3.23;;;2.93;;
13793;SDS011;31160;49.500;7.772;2023-12-20T03:55:24;3.63;;;3.23;;
13793;SDS011;31160;49.500;7.772;2023-12-20T03:57:50;4.17;;;3.33;;
13793;SDS011;31160;49.500;7.772;2023-12-20T04:00:17;4.73;;;3.80;;
13793;SDS011;31160;49.500;7.772;2023-12-20T04:02:44;4.30;;;3.70;;
13793;SDS011;31160;49.500;7.772;2023-12-20T04:05:11;4.70;;;4.07;;
13793;SDS011;31160;49.500;7.772;2023-12-20T04:07:38;5.13;;;4.27;;
13793;SDS011;31160;49.500;7.772;2023-12-20T04:10:05;5.27;;;4.27;;
13793;SDS011;31160;49.500;7.772;2023-12-20T04:12:33;8.17;;;4.07;;
13793;SDS011;31160;49.500;7.772;2023-12-20T04:15:00;5.37;;;4.33;;
13793;SDS011;31160;49.500;7.772;2023-12-20T04:17:26;6.40;;;4.30;;
13793;SDS011;31160;49.500;7.772;2023-12-20T04:19:53;5.53;;;4.33;;
13793;SDS011;31160;49.500;7.772;2023-12-20T04:22:20;5.40;;;4.53;;
13793;SDS011;31160;49.500;7.772;2023-12-20T04:24:47;5.57;;;4.97;;
13793;SDS011;31160;49.500;7.772;2023-12-20T04:27:14;6.33;;;5.57;;
13793;SDS011;31160;49.500;7.772;2023-12-20T04:29:41;5.83;;;5.23;;
13793;SDS011;31160;49.500;7.772;2023-12-20T04:32:08;6.73;;;5.63;;
13793;SDS011;31160;49.500;7.772;2023-12-20T04:34:35;6.43;;;5.23;;
13793;SDS011;31160;49.500;7.772;2023-12-20T04:37:02;7.23;;;5.57;;
13793;SDS011;31160;49.500;7.772;2023-12-20T04:39:30;6.67;;;5.60;;
13793;SDS011;31160;49.500;7.772;2023-12-20T04:41:56;5.87;;;5.27;;
13793;SDS011;31160;49.500;7.772;2023-12-20T04:44:23;6.90;;;5.10;;
13793;SDS011;31160;49.500;7.772;2023-12-20T04:46:50;6.10;;;5.37;;
13793;SDS011;31160;49.500;7.772;2023-12-20T04:49:16;7.83;;;5.87;;
13793;SDS011;31160;49.500;7.772;2023-12-20T04:51:43;7.43;;;6.17;;
13793;SDS011;31160;49.500;7.772;2023-12-20T04:54:10;6.83;;;6.13;;
13793;SDS011;31160;49.500;7.772;2023-12-20T04:56:37;6.37;;;5.47;;
13793;SDS011;31160;49.500;7.772;2023-12-20T04:59:04;8.60;;;6.03;;
13793;SDS011;31160;49.500;7.772;2023-12-20T05:01:31;6.77;;;5.30;;
13793;SDS011;31160;49.500;7.772;2023-12-20T05:03:58;6.73;;;5.57;;
13793;SDS011;31160;49.500;7.772;2023-12-20T05:06:25;8.83;;;5.87;;
13793;SDS011;31160;49.500;7.772;2023-12-20T05:08:52;6.20;;;5.57;;
13793;SDS011;31160;49.500;7.772;2023-12-20T05:11:19;7.30;;;5.07;;
13793;SDS011;31160;49.500;7.772;2023-12-20T05:13:46;5.53;;;4.63;;
13793;SDS011;31160;49.500;7.772;2023-12-20T05:16:16;6.27;;;5.20;;
13793;SDS011;31160;49.500;7.772;2023-12-20T05:18:45;7.67;;;5.00;;
13793;SDS011;31160;49.500;7.772;2023-12-20T05:21:13;5.97;;;5.17;;
13793;SDS011;31160;49.500;7.772;2023-12-20T05:23:39;7.70;;;5.60;;
13793;SDS011;31160;49.500;7.772;2023-12-20T05:26:06;9.30;;;6.20;;
13793;SDS011;31160;49.500;7.772;2023-12-20T05:28:33;9.27;;;7.37;;
13793;SDS011;31160;49.500;7.772;2023-12-20T05:31:00;9.23;;;7.40;;
13793;SDS011;31160;49.500;7.772;2023-12-20T05:33:27;10.60;;;7.90;;
13793;SDS011;31160;49.500;7.772;2023-12-20T05:35:54;9.50;;;7.43;;
13793;SDS011;31160;49.500;7.772;2023-12-20T05:38:21;9.90;;;7.63;;
13793;SDS011;31160;49.500;7.772;2023-12-20T05:40:47;8.37;;;6.93;;
13793;SDS011;31160;49.500;7.772;2023-12-20T05:43:14;7.67;;;6.83;;
13793;SDS011;31160;49.500;7.772;2023-12-20T05:45:41;8.47;;;7.00;;
13793;SDS011;31160;49.500;7.772;2023-12-20T05:48:08;6.97;;;6.27;;
13793;SDS011;31160;49.500;7.772;2023-12-20T05:50:35;6.43;;;4.97;;
13793;SDS011;31160;49.500;7.772;2023-12-20T05:53:02;6.03;;;4.77;;
13793;SDS011;31160;49.500;7.772;2023-12-20T05:55:29;5.43;;;4.50;;
13793;SDS011;31160;49.500;7.772;2023-12-20T05:57:56;7.73;;;5.03;;
13793;SDS011;31160;49.500;7.772;2023-12-20T06:00:23;6.07;;;4.37;;
13793;SDS011;31160;49.500;7.772;2023-12-20T06:02:51;4.80;;;3.93;;
13793;SDS011;31160;49.500;7.772;2023-12-20T06:05:18;4.70;;;3.60;;
13793;SDS011;31160;49.500;7.772;2023-12-20T06:07:45;5.10;;;3.20;;
13793;SDS011;31160;49.500;7.772;2023-12-20T06:10:15;5.47;;;3.23;;
13793;SDS011;31160;49.500;7.772;2023-12-20T06:12:42;7.20;;;4.00;;
13793;SDS011;31160;49.500;7.772;2023-12-20T06:15:08;4.40;;;3.57;;
13793;SDS011;31160;49.500;7.772;2023-12-20T06:17:35;6.70;;;4.30;;
13793;SDS011;31160;49.500;7.772;2023-12-20T06:20:02;6.70;;;4.87;;
13793;SDS011;31160;49.500;7.772;2023-12-20T06:22:34;6.90;;;5.50;;
13793;SDS011;31160;49.500;7.772;2023-12-20T06:25:02;6.20;;;5.13;;
13793;SDS011;31160;49.500;7.772;2023-12-20T06:27:29;6.50;;;5.13;;
13793;SDS011;31160;49.500;7.772;2023-12-20T06:29:58;8.60;;;5.57;;
13793;SDS011;31160;49.500;7.772;2023-12-20T06:32:25;8.33;;;5.60;;
13793;SDS011;31160;49.500;7.772;2023-12-20T06:34:52;8.10;;;5.70;;
13793;SDS011;31160;49.500;7.772;2023-12-20T06:37:19;7.37;;;4.93;;
13793;SDS011;31160;49.500;7.772;2023-12-20T06:39:46;8.80;;;5.30;;
13793;SDS011;31160;49.500;7.772;2023-12-20T06:42:12;7.33;;;4.83;;
13793;SDS011;31160;49.500;7.772;2023-12-20T06:44:39;6.87;;;4.20;;
13793;SDS011;31160;49.500;7.772;2023-12-20T06:47:06;5.33;;;4.50;;
13793;SDS011;31160;49.500;7.772;2023-12-20T06:49:33;6.13;;;4.13;;
13793;SDS011;31160;49.500;7.772;2023-12-20T06:52:00;6.93;;;3.20;;
13793;SDS011;31160;49.500;7.772;2023-12-20T06:54:27;5.63;;;3.27;;
13793;SDS011;31160;49.500;7.772;2023-12-20T06:56:53;7.27;;;3.40;;
13793;SDS011;31160;49.500;7.772;2023-12-20T06:59:20;6.33;;;2.93;;
13793;SDS011;31160;49.500;7.772;2023-12-20T07:01:47;6.60;;;3.00;;
13793;SDS011;31160;49.500;7.772;2023-12-20T07:04:15;4.03;;;2.43;;
13793;SDS011;31160;49.500;7.772;2023-12-20T07:06:46;7.30;;;2.30;;
13793;SDS011;31160;49.500;7.772;2023-12-20T07:09:14;7.13;;;2.57;;
13793;SDS011;31160;49.500;7.772;2023-12-20T07:11:41;5.90;;;2.70;;
13793;SDS011;31160;49.500;7.772;2023-12-20T07:14:08;4.27;;;2.67;;
13793;SDS011;31160;49.500;7.772;2023-12-20T07:16:35;5.37;;;2.67;;
13793;SDS011;31160;49.500;7.772;2023-12-20T07:19:02;5.00;;;1.90;;
13793;SDS011;31160;49.500;7.772;2023-12-20T07:21:29;8.70;;;2.33;;
13793;SDS011;31160;49.500;7.772;2023-12-20T07:23:56;3.73;;;1.80;;
13793;SDS011;31160;49.500;7.772;2023-12-20T07:26:23;3.13;;;1.70;;
13793;SDS011;31160;49.500;7.772;2023-12-20T07:28:49;3.47;;;1.60;;
13793;SDS011;31160;49.500;7.772;2023-12-20T07:31:16;5.63;;;1.80;;
13793;SDS011;31160;49.500;7.772;2023-12-20T07:33:43;3.30;;;1.80;;
13793;SDS011;31160;49.500;7.772;2023-12-20T07:36:11;2.47;;;1.50;;
13793;SDS011;31160;49.500;7.772;2023-12-20T07:38:38;3.33;;;1.43;;
13793;SDS011;31160;49.500;7.772;2023-12-20T07:41:05;4.17;;;1.70;;
13793;SDS011;31160;49.500;7.772;2023-12-20T07:43:32;4.27;;;1.80;;
13793;SDS011;31160;49.500;7.772;2023-12-20T07:46:03;4.87;;;1.67;;
13793;SDS011;31160;49.500;7.772;2023-12-20T07:48:31;4.20;;;1.30;;
13793;SDS011;31160;49.500;7.772;2023-12-20T07:50:58;8.70;;;2.07;;
13793;SDS011;31160;49.500;7.772;2023-12-20T07:53:25;8.47;;;1.40;;
13793;SDS011;31160;49.500;7.772;2023-12-20T07:55:52;3.27;;;1.27;;
13793;SDS011;31160;49.500;7.772;2023-12-20T07:58:19;9.27;;;1.97;;
13793;SDS011;31160;49.500;7.772;2023-12-20T08:00:46;6.10;;;1.50;;
13793;SDS011;31160;49.500;7.772;2023-12-20T08:03:13;7.80;;;1.87;;
13793;SDS011;31160;49.500;7.772;2023-12-20T08:05:40;5.23;;;1.30;;
13793;SDS011;31160;49.500;7.772;2023-12-20T08:08:07;4.27;;;1.40;;
13793;SDS011;31160;49.500;7.772;2023-12-20T08:10:34;3.27;;;1.03;;
13793;SDS011;31160;49.500;7.772;2023-12-20T08:13:01;4.60;;;1.70;;
13793;SDS011;31160;49.500;7.772;2023-12-20T08:15:28;3.97;;;1.63;;
13793;SDS011;31160;49.500;7.772;2023-12-20T08:17:54;4.77;;;1.63;;
13793;SDS011;31160;49.500;7.772;2023-12-20T08:20:21;5.77;;;1.40;;
13793;SDS011;31160;49.500;7.772;2023-12-20T08:22:58;3.80;;;2.03;;
13793;SDS011;31160;49.500;7.772;2023-12-20T08:25:25;5.67;;;1.73;;
13793;SDS011;31160;49.500;7.772;2023-12-20T08:27:52;6.63;;;2.07;;
13793;SDS011;31160;49.500;7.772;2023-12-20T08:30:18;7.53;;;2.20;;
13793;SDS011;31160;49.500;7.772;2023-12-20T08:32:48;8.93;;;2.03;;
13793;SDS011;31160;49.500;7.772;2023-12-20T08:35:15;6.10;;;2.43;;
13793;SDS011;31160;49.500;7.772;2023-12-20T08:37:42;8.07;;;2.83;;
13793;SDS011;31160;49.500;7.772;2023-12-20T08:40:09;10.77;;;3.33;;
13793;SDS011;31160;49.500;7.772;2023-12-20T08:42:36;8.80;;;3.10;;
13793;SDS011;31160;49.500;7.772;2023-12-20T08:45:03;6.67;;;1.87;;
13793;SDS011;31160;49.500;7.772;2023-12-20T08:47:30;9.17;;;2.30;;
13793;SDS011;31160;49.500;7.772;2023-12-20T08:49:57;11.30;;;2.87;;
13793;SDS011;31160;49.500;7.772;2023-12-20T08:52:26;6.23;;;2.00;;
13793;SDS011;31160;49.500;7.772;2023-12-20T08:54:53;5.87;;;1.80;;
13793;SDS011;31160;49.500;7.772;2023-12-20T08:57:20;6.43;;;2.43;;
13793;SDS011;31160;49.500;7.772;2023-12-20T08:59:47;7.17;;;1.70;;
13793;SDS011;31160;49.500;7.772;2023-12-20T09:02:14;5.77;;;2.33;;
13793;SDS011;31160;49.500;7.772;2023-12-20T09:04:41;7.63;;;2.30;;
13793;SDS011;31160;49.500;7.772;2023-12-20T09:10:08;5.30;;;2.20;;
13793;SDS011;31160;49.500;7.772;2023-12-20T09:12:34;5.00;;;2.00;;
13793;SDS011;31160;49.500;7.772;2023-12-20T09:15:02;7.90;;;2.20;;
13793;SDS011;31160;49.500;7.772;2023-12-20T09:17:29;12.07;;;2.50;;
13793;SDS011;31160;49.500;7.772;2023-12-20T09:19:56;8.43;;;2.40;;
13793;SDS011;31160;49.500;7.772;2023-12-20T09:22:23;10.17;;;2.30;;
13793;SDS011;31160;49.500;7.772;2023-12-20T09:24:49;9.03;;;2.17;;
13793;SDS011;31160;49.500;7.772;2023-12-20T09:27:16;4.47;;;1.97;;
13793;SDS011;31160;49.500;7.772;2023-12-20T09:29:43;7.33;;;2.40;;
13793;SDS011;31160;49.500;7.772;2023-12-20T09:32:10;13.40;;;2.20;;
13793;SDS011;31160;49.500;7.772;2023-12-20T09:34:36;8.37;;;2.40;;
13793;SDS011;31160;49.500;7.772;2023-12-20T09:37:03;6.63;;;1.90;;
13793;SDS011;31160;49.500;7.772;2023-12-20T09:39:31;9.97;;;2.00;;
13793;SDS011;31160;49.500;7.772;2023-12-20T09:42:05;14.90;;;2.90;;
13793;SDS011;31160;49.500;7.772;2023-12-20T09:44:33;8.53;;;2.53;;
13793;SDS011;31160;49.500;7.772;2023-12-20T09:47:03;5.63;;;1.90;;
13793;SDS011;31160;49.500;7.772;2023-12-20T09:49:32;4.67;;;1.90;;
13793;SDS011;31160;49.500;7.772;2023-12-20T09:51:59;9.40;;;1.97;;
13793;SDS011;31160;49.500;7.772;2023-12-20T09:54:28;6.87;;;2.33;;
13793;SDS011;31160;49.500;7.772;2023-12-20T09:56:55;9.47;;;2.07;;
13793;SDS011;31160;49.500;7.772;2023-12-20T09:59:22;8.37;;;2.10;;
13793;SDS011;31160;49.500;7.772;2023-12-20T10:01:49;6.43;;;2.10;;
13793;SDS011;31160;49.500;7.772;2023-12-20T10:04:21;9.23;;;1.90;;
13793;SDS011;31160;49.500;7.772;2023-12-20T10:06:55;8.07;;;2.57;;
13793;SDS011;31160;49.500;7.772;2023-12-20T10:09:23;9.73;;;2.90;;
13793;SDS011;31160;49.500;7.772;2023-12-20T10:11:50;6.63;;;2.80;;
13793;SDS011;31160;49.500;7.772;2023-12-20T10:14:21;7.90;;;2.50;;
13793;SDS011;31160;49.500;7.772;2023-12-20T10:16:49;8.10;;;2.47;;
13793;SDS011;31160;49.500;7.772;2023-12-20T10:19:17;9.37;;;2.60;;
13793;SDS011;31160;49.500;7.772;2023-12-20T10:21:44;11.80;;;2.50;;
13793;SDS011;31160;49.500;7.772;2023-12-20T10:24:16;12.40;;;2.60;;
13793;SDS011;31160;49.500;7.772;2023-12-20T10:26:44;8.67;;;2.10;;
13793;SDS011;31160;49.500;7.772;2023-12-20T10:29:11;6.97;;;2.73;;
13793;SDS011;31160;49.500;7.772;2023-12-20T10:31:37;8.57;;;2.43;;
13793;SDS011;31160;49.500;7.772;2023-12-20T10:34:09;7.73;;;2.37;;
13793;SDS011;31160;49.500;7.772;2023-12-20T10:36:36;14.63;;;2.53;;
13793;SDS011;31160;49.500;7.772;2023-12-20T10:39:02;8.87;;;3.03;;
13793;SDS011;31160;49.500;7.772;2023-12-20T10:41:33;7.17;;;2.70;;
13793;SDS011;31160;49.500;7.772;2023-12-20T10:44:02;10.17;;;3.07;;
13793;SDS011;31160;49.500;7.772;2023-12-20T10:46:31;15.10;;;2.87;;
13793;SDS011;31160;49.500;7.772;2023-12-20T10:49:04;7.40;;;2.50;;
13793;SDS011;31160;49.500;7.772;2023-12-20T10:51:31;8.33;;;2.20;;
13793;SDS011;31160;49.500;7.772;2023-12-20T10:54:00;9.07;;;2.43;;
13793;SDS011;31160;49.500;7.772;2023-12-20T10:56:27;7.30;;;2.67;;
13793;SDS011;31160;49.500;7.772;2023-12-20T10:58:58;8.40;;;2.53;;
13793;SDS011;31160;49.500;7.772;2023-12-20T11:01:29;12.53;;;2.67;;
13793;SDS011;31160;49.500;7.772;2023-12-20T11:03:56;14.20;;;2.40;;
13793;SDS011;31160;49.500;7.772;2023-12-20T11:06:29;8.70;;;2.77;;
13793;SDS011;31160;49.500;7.772;2023-12-20T11:09:06;9.47;;;2.83;;
13793;SDS011;31160;49.500;7.772;2023-12-20T11:11:42;9.93;;;3.27;;
13793;SDS011;31160;49.500;7.772;2023-12-20T11:14:20;8.13;;;2.67;;
13793;SDS011;31160;49.500;7.772;2023-12-20T11:17:14;12.00;;;2.63;;
13793;SDS011;31160;49.500;7.772;2023-12-20T11:22:24;10.17;;;3.03;;
13793;SDS011;31160;49.500;7.772;2023-12-20T11:24:52;8.40;;;2.40;;
13793;SDS011;31160;49.500;7.772;2023-12-20T11:27:19;7.00;;;2.43;;
13793;SDS011;31160;49.500;7.772;2023-12-20T11:29:53;7.90;;;2.10;;
13793;SDS011;31160;49.500;7.772;2023-12-20T11:37:46;6.20;;;2.17;;
13793;SDS011;31160;49.500;7.772;2023-12-20T11:40:17;13.33;;;2.40;;
13793;SDS011;31160;49.500;7.772;2023-12-20T11:42:45;8.43;;;2.47;;
13793;SDS011;31160;49.500;7.772;2023-12-20T11:45:17;9.67;;;2.13;;
13793;SDS011;31160;49.500;7.772;2023-12-20T11:47:48;7.90;;;2.30;;
13793;SDS011;31160;49.500;7.772;2023-12-20T11:50:22;14.83;;;2.10;;
13793;SDS011;31160;49.500;7.772;2023-12-20T11:52:50;6.60;;;1.50;;
13793;SDS011;31160;49.500;7.772;2023-12-20T11:55:18;9.17;;;2.50;;
13793;SDS011;31160;49.500;7.772;2023-12-20T11:57:45;9.30;;;2.77;;
13793;SDS011;31160;49.500;7.772;2023-12-20T12:00:13;9.33;;;2.17;;
13793;SDS011;31160;49.500;7.772;2023-12-20T12:02:40;8.27;;;2.20;;
13793;SDS011;31160;49.500;7.772;2023-12-20T12:05:07;11.00;;;2.13;;
13793;SDS011;31160;49.500;7.772;2023-12-20T12:07:35;9.10;;;2.67;;
13793;SDS011;31160;49.500;7.772;2023-12-20T12:10:02;10.37;;;2.33;;
13793;SDS011;31160;49.500;7.772;2023-12-20T12:12:30;7.93;;;2.10;;
13793;SDS011;31160;49.500;7.772;2023-12-20T12:14:57;7.17;;;1.90;;
13793;SDS011;31160;49.500;7.772;2023-12-20T12:17:24;9.03;;;2.30;;
13793;SDS011;31160;49.500;7.772;2023-12-20T12:19:51;5.17;;;2.10;;
13793;SDS011;31160;49.500;7.772;2023-12-20T12:22:32;8.30;;;2.13;;
13793;SDS011;31160;49.500;7.772;2023-12-20T12:24:59;9.10;;;2.80;;
13793;SDS011;31160;49.500;7.772;2023-12-20T12:27:39;7.70;;;1.97;;
13793;SDS011;31160;49.500;7.772;2023-12-20T12:30:07;6.50;;;2.03;;
13793;SDS011;31160;49.500;7.772;2023-12-20T12:32:36;5.13;;;1.53;;
13793;SDS011;31160;49.500;7.772;2023-12-20T12:35:03;10.17;;;2.53;;
13793;SDS011;31160;49.500;7.772;2023-12-20T12:37:39;7.23;;;2.43;;
13793;SDS011;31160;49.500;7.772;2023-12-20T12:40:09;7.63;;;2.03;;
13793;SDS011;31160;49.500;7.772;2023-12-20T12:42:39;11.20;;;2.27;;
13793;SDS011;31160;49.500;7.772;2023-12-20T12:45:07;9.63;;;2.37;;
13793;SDS011;31160;49.500;7.772;2023-12-20T12:47:34;7.87;;;1.83;;
13793;SDS011;31160;49.500;7.772;2023-12-20T12:50:02;7.50;;;2.07;;
13793;SDS011;31160;49.500;7.772;2023-12-20T12:52:30;6.40;;;2.27;;
13793;SDS011;31160;49.500;7.772;2023-12-20T12:54:57;8.23;;;1.90;;
13793;SDS011;31160;49.500;7.772;2023-12-20T12:57:24;7.37;;;1.87;;
13793;SDS011;31160;49.500;7.772;2023-12-20T12:59:51;7.60;;;1.90;;
13793;SDS011;31160;49.500;7.772;2023-12-20T13:02:17;6.20;;;1.53;;
13793;SDS011;31160;49.500;7.772;2023-12-20T13:04:44;5.13;;;1.63;;
13793;SDS011;31160;49.500;7.772;2023-12-20T13:07:11;5.80;;;1.60;;
13793;SDS011;31160;49.500;7.772;2023-12-20T13:09:39;9.83;;;2.30;;
13793;SDS011;31160;49.500;7.772;2023-12-20T13:12:06;9.10;;;2.10;;
13793;SDS011;31160;49.500;7.772;2023-12-20T13:14:33;13.77;;;2.40;;
13793;SDS011;31160;49.500;7.772;2023-12-20T13:17:03;11.90;;;3.10;;
13793;SDS011;31160;49.500;7.772;2023-12-20T13:19:30;11.07;;;2.80;;
13793;SDS011;31160;49.500;7.772;2023-12-20T13:21:57;5.67;;;1.73;;
13793;SDS011;31160;49.500;7.772;2023-12-20T13:24:27;7.77;;;2.17;;
13793;SDS011;31160;49.500;7.772;2023-12-20T13:26:53;7.70;;;1.80;;
13793;SDS011;31160;49.500;7.772;2023-12-20T13:29:20;4.17;;;1.93;;
13793;SDS011;31160;49.500;7.772;2023-12-20T13:31:47;5.07;;;1.40;;
13793;SDS011;31160;49.500;7.772;2023-12-20T13:34:15;8.13;;;1.83;;
13793;SDS011;31160;49.500;7.772;2023-12-20T13:36:43;7.10;;;1.70;;
13793;SDS011;31160;49.500;7.772;2023-12-20T13:39:13;7.10;;;1.60;;
13793;SDS011;31160;49.500;7.772;2023-12-20T13:41:40;9.57;;;1.70;;
13793;SDS011;31160;49.500;7.772;2023-12-20T13:44:07;7.38;;;2.03;;
13793;SDS011;31160;49.500;7.772;2023-12-20T13:46:33;4.43;;;1.73;;
13793;SDS011;31160;49.500;7.772;2023-12-20T13:49:00;8.20;;;1.83;;
13793;SDS011;31160;49.500;7.772;2023-12-20T13:51:28;6.23;;;1.87;;
13793;SDS011;31160;49.500;7.772;2023-12-20T13:53:54;6.13;;;1.33;;
13793;SDS011;31160;49.500;7.772;2023-12-20T13:56:21;13.53;;;2.47;;
13793;SDS011;31160;49.500;7.772;2023-12-20T13:58:49;6.43;;;1.63;;
13793;SDS011;31160;49.500;7.772;2023-12-20T14:01:17;6.27;;;1.57;;
13793;SDS011;31160;49.500;7.772;2023-12-20T14:03:43;6.17;;;2.00;;
13793;SDS011;31160;49.500;7.772;2023-12-20T14:06:10;9.07;;;2.13;;
13793;SDS011;31160;49.500;7.772;2023-12-20T14:08:37;7.17;;;1.73;;
13793;SDS011;31160;49.500;7.772;2023-12-20T14:11:04;5.13;;;1.60;;
13793;SDS011;31160;49.500;7.772;2023-12-20T14:13:31;9.40;;;1.93;;
13793;SDS011;31160;49.500;7.772;2023-12-20T14:15:58;8.00;;;1.47;;
13793;SDS011;31160;49.500;7.772;2023-12-20T14:18:26;7.00;;;1.90;;
13793;SDS011;31160;49.500;7.772;2023-12-20T14:20:53;5.37;;;1.70;;
13793;SDS011;31160;49.500;7.772;2023-12-20T14:23:21;11.17;;;2.30;;
13793;SDS011;31160;49.500;7.772;2023-12-20T14:25:49;7.90;;;2.10;;
13793;SDS011;31160;49.500;7.772;2023-12-20T14:28:18;7.90;;;1.70;;
13793;SDS011;31160;49.500;7.772;2023-12-20T14:30:45;8.37;;;2.20;;
13793;SDS011;31160;49.500;7.772;2023-12-20T14:33:12;7.57;;;2.07;;
13793;SDS011;31160;49.500;7.772;2023-12-20T14:35:40;8.33;;;1.93;;
13793;SDS011;31160;49.500;7.772;2023-12-20T14:38:11;5.93;;;1.63;;
13793;SDS011;31160;49.500;7.772;2023-12-20T14:40:40;13.27;;;2.33;;
13793;SDS011;31160;49.500;7.772;2023-12-20T14:43:07;7.97;;;1.93;;
13793;SDS011;31160;49.500;7.772;2023-12-20T14:45:34;12.93;;;1.93;;
13793;SDS011;31160;49.500;7.772;2023-12-20T14:48:00;7.87;;;1.80;;
13793;SDS011;31160;49.500;7.772;2023-12-20T14:50:28;8.57;;;1.80;;
13793;SDS011;31160;49.500;7.772;2023-12-20T14:52:54;9.00;;;1.83;;
13793;SDS011;31160;49.500;7.772;2023-12-20T14:55:22;10.57;;;1.93;;
13793;SDS011;31160;49.500;7.772;2023-12-20T14:57:49;9.37;;;2.20;;
13793;SDS011;31160;49.500;7.772;2023-12-20T15:00:16;8.57;;;2.27;;